QFA425 YMML-YSSY
Flight info
| Callsign | QFA425 |
|---|---|
| Flight time | 1h 9m |
| Altitude | 33000 |
| Route | ML H129 DOSEL Y59 RIVET |
| Aircraft | B738/M-SDE2E3FGHIRWXY/LB1 |
Departure
| Time | 2026-04-25 03:59 |
|---|---|
| Airport | Melbourne Airport (YMML) |
Arrival
| Time | 2026-04-25 05:08 |
|---|---|
| Airport | Sydney Kingsford Smith International Airport (YSSY) |
| Time | Latitude | Longitude | Altitude | Speed | Heading |
|---|---|---|---|---|---|
| 2026-04-25 03:30 | -37.66650 | 144.85013 | 337 ft | 0 kts | 260° |
| 2026-04-25 03:40 | -37.66650 | 144.85014 | 337 ft | 2 kts | 260° |
| 2026-04-25 03:40 | -37.66646 | 144.85042 | 333 ft | 3 kts | 264° |
| 2026-04-25 03:40 | -37.66645 | 144.85059 | 335 ft | 2 kts | 284° |
| 2026-04-25 03:41 | -37.66651 | 144.85071 | 331 ft | 2 kts | 341° |
| 2026-04-25 03:41 | -37.66662 | 144.85074 | 332 ft | 2 kts | 349° |
| 2026-04-25 03:41 | -37.66669 | 144.85076 | 334 ft | 0 kts | 351° |
| 2026-04-25 03:42 | -37.66665 | 144.85075 | 333 ft | 1 kts | 352° |
| 2026-04-25 03:43 | -37.66664 | 144.85075 | 332 ft | 0 kts | 352° |
| 2026-04-25 03:47 | -37.66662 | 144.85075 | 332 ft | 1 kts | 352° |
| 2026-04-25 03:48 | -37.66647 | 144.85072 | 338 ft | 4 kts | 352° |
| 2026-04-25 03:48 | -37.66611 | 144.85065 | 334 ft | 6 kts | 352° |
| 2026-04-25 03:48 | -37.66576 | 144.85059 | 330 ft | 2 kts | 352° |
| 2026-04-25 03:48 | -37.66553 | 144.85051 | 331 ft | 4 kts | 334° |
| 2026-04-25 03:49 | -37.66534 | 144.85020 | 333 ft | 5 kts | 286° |
| 2026-04-25 03:49 | -37.66534 | 144.84966 | 331 ft | 7 kts | 264° |
| 2026-04-25 03:49 | -37.66542 | 144.84897 | 334 ft | 9 kts | 262° |
| 2026-04-25 03:49 | -37.66562 | 144.84824 | 332 ft | 9 kts | 231° |
| 2026-04-25 03:50 | -37.66607 | 144.84788 | 333 ft | 7 kts | 213° |
| 2026-04-25 03:50 | -37.66635 | 144.84737 | 338 ft | 7 kts | 251° |
| 2026-04-25 03:50 | -37.66646 | 144.84668 | 353 ft | 9 kts | 261° |
| 2026-04-25 03:50 | -37.66656 | 144.84589 | 349 ft | 9 kts | 262° |
| 2026-04-25 03:51 | -37.66665 | 144.84503 | 355 ft | 10 kts | 263° |
| 2026-04-25 03:51 | -37.66676 | 144.84412 | 365 ft | 11 kts | 262° |
| 2026-04-25 03:51 | -37.66688 | 144.84308 | 369 ft | 13 kts | 261° |
| 2026-04-25 03:51 | -37.66720 | 144.84205 | 373 ft | 13 kts | 217° |
| 2026-04-25 03:52 | -37.66822 | 144.84200 | 374 ft | 18 kts | 171° |
| 2026-04-25 03:52 | -37.66957 | 144.84227 | 371 ft | 21 kts | 172° |
| 2026-04-25 03:52 | -37.67102 | 144.84252 | 370 ft | 21 kts | 172° |
| 2026-04-25 03:52 | -37.67243 | 144.84277 | 365 ft | 20 kts | 172° |
| 2026-04-25 03:53 | -37.67379 | 144.84303 | 364 ft | 20 kts | 171° |
| 2026-04-25 03:53 | -37.67511 | 144.84328 | 362 ft | 19 kts | 172° |
| 2026-04-25 03:53 | -37.67639 | 144.84352 | 357 ft | 18 kts | 171° |
| 2026-04-25 03:53 | -37.67768 | 144.84376 | 358 ft | 18 kts | 171° |
| 2026-04-25 03:54 | -37.67822 | 144.84387 | 353 ft | 8 kts | 171° |
| 2026-04-25 03:54 | -37.67888 | 144.84398 | 352 ft | 12 kts | 172° |
| 2026-04-25 03:54 | -37.67997 | 144.84419 | 345 ft | 20 kts | 171° |
| 2026-04-25 03:54 | -37.68147 | 144.84446 | 336 ft | 23 kts | 172° |
| 2026-04-25 03:55 | -37.68291 | 144.84473 | 334 ft | 13 kts | 176° |
| 2026-04-25 03:55 | -37.68387 | 144.84434 | 333 ft | 16 kts | 219° |
| 2026-04-25 03:55 | -37.68480 | 144.84365 | 331 ft | 17 kts | 210° |
| 2026-04-25 03:55 | -37.68554 | 144.84267 | 331 ft | 10 kts | 258° |
| 2026-04-25 03:56 | -37.68555 | 144.84262 | 331 ft | 0 kts | 259° |
| 2026-04-25 03:56 | -37.68555 | 144.84260 | 331 ft | 1 kts | 259° |
| 2026-04-25 03:57 | -37.68559 | 144.84235 | 331 ft | 8 kts | 259° |
| 2026-04-25 03:57 | -37.68569 | 144.84151 | 333 ft | 11 kts | 262° |
| 2026-04-25 03:57 | -37.68541 | 144.84090 | 334 ft | 0 kts | 348° |
| 2026-04-25 03:58 | -37.68536 | 144.84090 | 334 ft | 5 kts | 354° |
| 2026-04-25 03:58 | -37.68367 | 144.84058 | 337 ft | 55 kts | 351° |
| 2026-04-25 03:58 | -37.67779 | 144.83947 | 355 ft | 114 kts | 352° |
| 2026-04-25 03:58 | -37.66847 | 144.83783 | 516 ft | 147 kts | 353° |
| 2026-04-25 03:59 | -37.65856 | 144.83584 | 1204 ft | 148 kts | 351° |
| 2026-04-25 03:59 | -37.64830 | 144.83340 | 1874 ft | 147 kts | 350° |
| 2026-04-25 03:59 | -37.63812 | 144.83068 | 2513 ft | 155 kts | 350° |
| 2026-04-25 03:59 | -37.62671 | 144.82836 | 2887 ft | 181 kts | 352° |
| 2026-04-25 04:00 | -37.61327 | 144.82606 | 3111 ft | 209 kts | 352° |
| 2026-04-25 04:00 | -37.59784 | 144.82398 | 3308 ft | 237 kts | 2° |
| 2026-04-25 04:00 | -37.58152 | 144.82828 | 4057 ft | 243 kts | 17° |
| 2026-04-25 04:00 | -37.56564 | 144.83714 | 4698 ft | 253 kts | 21° |
| 2026-04-25 04:01 | -37.55000 | 144.84699 | 5499 ft | 256 kts | 21° |
| 2026-04-25 04:01 | -37.53410 | 144.85705 | 6316 ft | 257 kts | 21° |
| 2026-04-25 04:01 | -37.51785 | 144.86717 | 6973 ft | 262 kts | 20° |
| 2026-04-25 04:01 | -37.50141 | 144.87730 | 7681 ft | 265 kts | 20° |
| 2026-04-25 04:02 | -37.48457 | 144.88756 | 8285 ft | 272 kts | 20° |
| 2026-04-25 04:02 | -37.46748 | 144.89793 | 8960 ft | 274 kts | 21° |
| 2026-04-25 04:02 | -37.45017 | 144.90843 | 9611 ft | 279 kts | 20° |
| 2026-04-25 04:02 | -37.43367 | 144.92206 | 10229 ft | 294 kts | 42° |
| 2026-04-25 04:03 | -37.42040 | 144.94316 | 10425 ft | 319 kts | 49° |
| 2026-04-25 04:03 | -37.40716 | 144.96666 | 10599 ft | 340 kts | 51° |
| 2026-04-25 04:03 | -37.39326 | 144.99177 | 10826 ft | 356 kts | 51° |
| 2026-04-25 04:03 | -37.37903 | 145.01750 | 11398 ft | 360 kts | 51° |
| 2026-04-25 04:04 | -37.36479 | 145.04312 | 11988 ft | 364 kts | 51° |
| 2026-04-25 04:04 | -37.35016 | 145.06927 | 12635 ft | 367 kts | 52° |
| 2026-04-25 04:04 | -37.33533 | 145.09564 | 13294 ft | 370 kts | 51° |
| 2026-04-25 04:04 | -37.32033 | 145.12216 | 13954 ft | 373 kts | 50° |
| 2026-04-25 04:05 | -37.30516 | 145.14883 | 14553 ft | 377 kts | 52° |
| 2026-04-25 04:05 | -37.28985 | 145.17576 | 15158 ft | 381 kts | 51° |
| 2026-04-25 04:05 | -37.27441 | 145.20297 | 15759 ft | 384 kts | 51° |
| 2026-04-25 04:05 | -37.25881 | 145.23041 | 16387 ft | 387 kts | 51° |
| 2026-04-25 04:06 | -37.24307 | 145.25803 | 16994 ft | 391 kts | 51° |
| 2026-04-25 04:06 | -37.22716 | 145.28603 | 17563 ft | 396 kts | 52° |
| 2026-04-25 04:06 | -37.21120 | 145.31407 | 18037 ft | 402 kts | 52° |
| 2026-04-25 04:06 | -37.19485 | 145.34274 | 18631 ft | 406 kts | 52° |
| 2026-04-25 04:07 | -37.17838 | 145.37157 | 19163 ft | 408 kts | 52° |
| 2026-04-25 04:07 | -37.16173 | 145.40064 | 19687 ft | 411 kts | 51° |
| 2026-04-25 04:07 | -37.14495 | 145.42993 | 20176 ft | 415 kts | 52° |
| 2026-04-25 04:07 | -37.12803 | 145.45946 | 20721 ft | 417 kts | 52° |
| 2026-04-25 04:08 | -37.11102 | 145.48907 | 21250 ft | 420 kts | 52° |
| 2026-04-25 04:08 | -37.09406 | 145.51857 | 21698 ft | 424 kts | 52° |
| 2026-04-25 04:08 | -37.07672 | 145.54872 | 22208 ft | 426 kts | 52° |
| 2026-04-25 04:08 | -37.05940 | 145.57886 | 22739 ft | 428 kts | 52° |
| 2026-04-25 04:09 | -37.04194 | 145.60923 | 23159 ft | 432 kts | 52° |
| 2026-04-25 04:09 | -37.02431 | 145.63984 | 23614 ft | 435 kts | 52° |
| 2026-04-25 04:09 | -37.00656 | 145.67063 | 24066 ft | 437 kts | 52° |
| 2026-04-25 04:09 | -36.98891 | 145.70122 | 24422 ft | 440 kts | 52° |
| 2026-04-25 04:10 | -36.97094 | 145.73234 | 24806 ft | 443 kts | 52° |
| 2026-04-25 04:10 | -36.95281 | 145.76371 | 25210 ft | 445 kts | 52° |
| 2026-04-25 04:10 | -36.93462 | 145.79515 | 25593 ft | 447 kts | 52° |
| 2026-04-25 04:10 | -36.91639 | 145.82663 | 25977 ft | 449 kts | 52° |
| 2026-04-25 04:11 | -36.87955 | 145.89013 | 26651 ft | 454 kts | 52° |
| 2026-04-25 04:11 | -36.86092 | 145.92220 | 26970 ft | 457 kts | 52° |
| 2026-04-25 04:11 | -36.84220 | 145.95439 | 27326 ft | 459 kts | 52° |
| 2026-04-25 04:12 | -36.82339 | 145.98672 | 27660 ft | 461 kts | 52° |
| 2026-04-25 04:12 | -36.80469 | 146.01883 | 27979 ft | 464 kts | 52° |
| 2026-04-25 04:12 | -36.78565 | 146.05148 | 28276 ft | 466 kts | 52° |
| 2026-04-25 04:12 | -36.76651 | 146.08429 | 28574 ft | 469 kts | 52° |
| 2026-04-25 04:13 | -36.74725 | 146.11725 | 28899 ft | 470 kts | 52° |
| 2026-04-25 04:13 | -36.72790 | 146.15035 | 29229 ft | 472 kts | 52° |
| 2026-04-25 04:13 | -36.70868 | 146.18318 | 29524 ft | 474 kts | 52° |
| 2026-04-25 04:13 | -36.68917 | 146.21650 | 29804 ft | 476 kts | 52° |
| 2026-04-25 04:14 | -36.66954 | 146.24996 | 30073 ft | 479 kts | 52° |
| 2026-04-25 04:14 | -36.64987 | 146.28348 | 30410 ft | 479 kts | 52° |
| 2026-04-25 04:14 | -36.63021 | 146.31692 | 30797 ft | 477 kts | 52° |
| 2026-04-25 04:14 | -36.61066 | 146.35018 | 31190 ft | 475 kts | 53° |
| 2026-04-25 04:15 | -36.59115 | 146.38332 | 31536 ft | 474 kts | 53° |
| 2026-04-25 04:15 | -36.57163 | 146.41643 | 31827 ft | 474 kts | 53° |
| 2026-04-25 04:15 | -36.55213 | 146.44950 | 32127 ft | 474 kts | 53° |
| 2026-04-25 04:15 | -36.53261 | 146.48254 | 32459 ft | 473 kts | 53° |
| 2026-04-25 04:16 | -36.51317 | 146.51545 | 32798 ft | 472 kts | 53° |
| 2026-04-25 04:16 | -36.49374 | 146.54828 | 33095 ft | 471 kts | 53° |
| 2026-04-25 04:16 | -36.47457 | 146.58065 | 33338 ft | 471 kts | 53° |
| 2026-04-25 04:17 | -36.43554 | 146.64645 | 33357 ft | 474 kts | 53° |
| 2026-04-25 04:17 | -36.39648 | 146.71219 | 33344 ft | 470 kts | 53° |
| 2026-04-25 04:18 | -36.35779 | 146.77719 | 33338 ft | 464 kts | 53° |
| 2026-04-25 04:18 | -36.31953 | 146.84133 | 33353 ft | 460 kts | 53° |
| 2026-04-25 04:19 | -36.28142 | 146.90511 | 33354 ft | 458 kts | 53° |
| 2026-04-25 04:19 | -36.24372 | 146.96810 | 33359 ft | 458 kts | 53° |
| 2026-04-25 04:20 | -36.20571 | 147.03150 | 33356 ft | 459 kts | 53° |
| 2026-04-25 04:20 | -36.16747 | 147.09514 | 33357 ft | 461 kts | 53° |
| 2026-04-25 04:21 | -36.12908 | 147.15889 | 33357 ft | 463 kts | 53° |
| 2026-04-25 04:21 | -36.09698 | 147.21214 | 33353 ft | 465 kts | 53° |
| 2026-04-25 04:22 | -36.05825 | 147.27631 | 33353 ft | 466 kts | 53° |
| 2026-04-25 04:22 | -36.01300 | 147.35112 | 33358 ft | 468 kts | 53° |
| 2026-04-25 04:23 | -35.98031 | 147.40506 | 33362 ft | 468 kts | 53° |
| 2026-04-25 04:23 | -35.94126 | 147.46941 | 33355 ft | 469 kts | 53° |
| 2026-04-25 04:24 | -35.90238 | 147.53334 | 33356 ft | 468 kts | 53° |
| 2026-04-25 04:24 | -35.86328 | 147.59754 | 33359 ft | 467 kts | 53° |
| 2026-04-25 04:25 | -35.82422 | 147.66152 | 33358 ft | 466 kts | 53° |
| 2026-04-25 04:25 | -35.78516 | 147.72531 | 33356 ft | 465 kts | 53° |
| 2026-04-25 04:26 | -35.74622 | 147.78882 | 33363 ft | 464 kts | 53° |
| 2026-04-25 04:26 | -35.70754 | 147.85181 | 33358 ft | 463 kts | 53° |
| 2026-04-25 04:27 | -35.66867 | 147.91501 | 33361 ft | 463 kts | 53° |
| 2026-04-25 04:27 | -35.62979 | 147.97810 | 33357 ft | 463 kts | 53° |
| 2026-04-25 04:28 | -35.59080 | 148.04126 | 33361 ft | 463 kts | 53° |
| 2026-04-25 04:28 | -35.55396 | 148.10611 | 33362 ft | 463 kts | 58° |
| 2026-04-25 04:29 | -35.51932 | 148.17275 | 33363 ft | 463 kts | 58° |
| 2026-04-25 04:29 | -35.48481 | 148.23901 | 33365 ft | 464 kts | 58° |
| 2026-04-25 04:30 | -35.44967 | 148.30545 | 33366 ft | 464 kts | 58° |
| 2026-04-25 04:30 | -35.41428 | 148.37173 | 33360 ft | 465 kts | 58° |
| 2026-04-25 04:31 | -35.37877 | 148.43803 | 33373 ft | 465 kts | 57° |
| 2026-04-25 04:31 | -35.34319 | 148.50434 | 33363 ft | 465 kts | 58° |
| 2026-04-25 04:32 | -35.30763 | 148.57052 | 33357 ft | 465 kts | 57° |
| 2026-04-25 04:32 | -35.27222 | 148.63625 | 33359 ft | 464 kts | 57° |
| 2026-04-25 04:33 | -35.23664 | 148.70217 | 33355 ft | 464 kts | 57° |
| 2026-04-25 04:33 | -35.20099 | 148.76815 | 33360 ft | 463 kts | 57° |
| 2026-04-25 04:34 | -35.16544 | 148.83384 | 33350 ft | 463 kts | 57° |
| 2026-04-25 04:34 | -35.13018 | 148.89886 | 33216 ft | 462 kts | 57° |
| 2026-04-25 04:34 | -35.11221 | 148.93196 | 32928 ft | 460 kts | 57° |
| 2026-04-25 04:35 | -35.09461 | 148.96434 | 32671 ft | 454 kts | 57° |
| 2026-04-25 04:35 | -35.07743 | 148.99590 | 32415 ft | 450 kts | 57° |
| 2026-04-25 04:35 | -35.06013 | 149.02768 | 32166 ft | 449 kts | 57° |
| 2026-04-25 04:35 | -35.04285 | 149.05938 | 31918 ft | 447 kts | 57° |
| 2026-04-25 04:36 | -35.02568 | 149.09086 | 31675 ft | 446 kts | 57° |
| 2026-04-25 04:36 | -35.00849 | 149.12235 | 31426 ft | 444 kts | 57° |
| 2026-04-25 04:36 | -34.99136 | 149.15370 | 31180 ft | 443 kts | 57° |
| 2026-04-25 04:36 | -34.97432 | 149.18486 | 30941 ft | 442 kts | 57° |
| 2026-04-25 04:37 | -34.95726 | 149.21602 | 30700 ft | 440 kts | 57° |
| 2026-04-25 04:37 | -34.94028 | 149.24702 | 30464 ft | 439 kts | 57° |
| 2026-04-25 04:37 | -34.92332 | 149.27794 | 30195 ft | 438 kts | 57° |
| 2026-04-25 04:37 | -34.90642 | 149.30873 | 29921 ft | 437 kts | 57° |
| 2026-04-25 04:38 | -34.88957 | 149.33940 | 29640 ft | 435 kts | 57° |
| 2026-04-25 04:38 | -34.87276 | 149.36999 | 29365 ft | 433 kts | 57° |
| 2026-04-25 04:38 | -34.85602 | 149.40040 | 29093 ft | 431 kts | 57° |
| 2026-04-25 04:38 | -34.83935 | 149.43067 | 28822 ft | 429 kts | 57° |
| 2026-04-25 04:39 | -34.82298 | 149.46037 | 28553 ft | 427 kts | 57° |
| 2026-04-25 04:39 | -34.80644 | 149.49034 | 28296 ft | 425 kts | 57° |
| 2026-04-25 04:39 | -34.79001 | 149.52011 | 27966 ft | 421 kts | 57° |
| 2026-04-25 04:39 | -34.77378 | 149.54945 | 27576 ft | 416 kts | 57° |
| 2026-04-25 04:40 | -34.75770 | 149.57853 | 27150 ft | 413 kts | 57° |
| 2026-04-25 04:40 | -34.74173 | 149.60739 | 26741 ft | 409 kts | 57° |
| 2026-04-25 04:40 | -34.72588 | 149.63600 | 26334 ft | 406 kts | 57° |
| 2026-04-25 04:40 | -34.71014 | 149.66439 | 25914 ft | 403 kts | 57° |
| 2026-04-25 04:41 | -34.69448 | 149.69262 | 25507 ft | 401 kts | 57° |
| 2026-04-25 04:41 | -34.67887 | 149.72074 | 25116 ft | 414 kts | 57° |
| 2026-04-25 04:41 | -34.66254 | 149.75017 | 24689 ft | 421 kts | 57° |
| 2026-04-25 04:41 | -34.64615 | 149.77965 | 24076 ft | 422 kts | 57° |
| 2026-04-25 04:42 | -34.62968 | 149.80923 | 23298 ft | 424 kts | 57° |
| 2026-04-25 04:42 | -34.61301 | 149.83915 | 22407 ft | 429 kts | 57° |
| 2026-04-25 04:42 | -34.59631 | 149.86908 | 21767 ft | 427 kts | 57° |
| 2026-04-25 04:42 | -34.57971 | 149.89883 | 21272 ft | 421 kts | 57° |
| 2026-04-25 04:43 | -34.56336 | 149.92808 | 20785 ft | 416 kts | 57° |
| 2026-04-25 04:43 | -34.54719 | 149.95701 | 20238 ft | 413 kts | 57° |
| 2026-04-25 04:43 | -34.53110 | 149.98576 | 19698 ft | 410 kts | 56° |
| 2026-04-25 04:43 | -34.51514 | 150.01427 | 19170 ft | 407 kts | 56° |
| 2026-04-25 04:44 | -34.49954 | 150.04212 | 18917 ft | 397 kts | 56° |
| 2026-04-25 04:44 | -34.48417 | 150.06952 | 18562 ft | 390 kts | 56° |
| 2026-04-25 04:44 | -34.46895 | 150.09664 | 18050 ft | 387 kts | 56° |
| 2026-04-25 04:44 | -34.45383 | 150.12356 | 17537 ft | 384 kts | 56° |
| 2026-04-25 04:45 | -34.43869 | 150.15052 | 16684 ft | 390 kts | 56° |
| 2026-04-25 04:45 | -34.42329 | 150.17791 | 15898 ft | 395 kts | 56° |
| 2026-04-25 04:45 | -34.40780 | 150.20545 | 15290 ft | 394 kts | 56° |
| 2026-04-25 04:45 | -34.39256 | 150.23250 | 14788 ft | 391 kts | 56° |
| 2026-04-25 04:46 | -34.37730 | 150.25957 | 14285 ft | 388 kts | 56° |
| 2026-04-25 04:46 | -34.36215 | 150.28642 | 13715 ft | 385 kts | 56° |
| 2026-04-25 04:46 | -34.34708 | 150.31313 | 13168 ft | 382 kts | 56° |
| 2026-04-25 04:46 | -34.33212 | 150.33960 | 12684 ft | 378 kts | 56° |
| 2026-04-25 04:47 | -34.31734 | 150.36576 | 12162 ft | 375 kts | 56° |
| 2026-04-25 04:47 | -34.30263 | 150.39178 | 11621 ft | 373 kts | 56° |
| 2026-04-25 04:47 | -34.28817 | 150.41730 | 11112 ft | 371 kts | 56° |
| 2026-04-25 04:47 | -34.27412 | 150.44304 | 10920 ft | 359 kts | 59° |
| 2026-04-25 04:48 | -34.26221 | 150.46894 | 10829 ft | 346 kts | 63° |
| 2026-04-25 04:48 | -34.25127 | 150.49432 | 10746 ft | 333 kts | 63° |
| 2026-04-25 04:48 | -34.24079 | 150.51866 | 10668 ft | 321 kts | 63° |
| 2026-04-25 04:48 | -34.23054 | 150.54216 | 10597 ft | 310 kts | 62° |
| 2026-04-25 04:49 | -34.22054 | 150.56477 | 10528 ft | 300 kts | 62° |
| 2026-04-25 04:49 | -34.21089 | 150.58643 | 10427 ft | 291 kts | 62° |
| 2026-04-25 04:49 | -34.20127 | 150.60790 | 10135 ft | 291 kts | 62° |
| 2026-04-25 04:49 | -34.19152 | 150.62959 | 9637 ft | 296 kts | 62° |
| 2026-04-25 04:50 | -34.18161 | 150.65164 | 9172 ft | 300 kts | 62° |
| 2026-04-25 04:50 | -34.17159 | 150.67393 | 8697 ft | 304 kts | 62° |
| 2026-04-25 04:50 | -34.16144 | 150.69648 | 8301 ft | 305 kts | 62° |
| 2026-04-25 04:50 | -34.15140 | 150.71879 | 8146 ft | 297 kts | 62° |
| 2026-04-25 04:51 | -34.14181 | 150.74007 | 8074 ft | 287 kts | 61° |
| 2026-04-25 04:51 | -34.13244 | 150.76088 | 7989 ft | 278 kts | 61° |
| 2026-04-25 04:51 | -34.12328 | 150.78121 | 7763 ft | 275 kts | 61° |
| 2026-04-25 04:51 | -34.11413 | 150.80148 | 7467 ft | 275 kts | 61° |
| 2026-04-25 04:52 | -34.10498 | 150.82173 | 7178 ft | 274 kts | 61° |
| 2026-04-25 04:52 | -34.09587 | 150.84194 | 6908 ft | 273 kts | 61° |
| 2026-04-25 04:52 | -34.08682 | 150.86205 | 6628 ft | 273 kts | 61° |
| 2026-04-25 04:52 | -34.07777 | 150.88217 | 6359 ft | 271 kts | 60° |
| 2026-04-25 04:53 | -34.06878 | 150.90214 | 6086 ft | 271 kts | 60° |
| 2026-04-25 04:53 | -34.05979 | 150.92210 | 6017 ft | 270 kts | 60° |
| 2026-04-25 04:53 | -34.05091 | 150.94179 | 5998 ft | 270 kts | 61° |
| 2026-04-25 04:53 | -34.04198 | 150.96159 | 5992 ft | 267 kts | 61° |
| 2026-04-25 04:54 | -34.03308 | 150.98130 | 5986 ft | 267 kts | 60° |
| 2026-04-25 04:54 | -34.02416 | 151.00104 | 5997 ft | 268 kts | 61° |
| 2026-04-25 04:54 | -34.01523 | 151.02083 | 6003 ft | 269 kts | 61° |
| 2026-04-25 04:54 | -34.00630 | 151.04066 | 6000 ft | 269 kts | 61° |
| 2026-04-25 04:55 | -33.99609 | 151.05949 | 5983 ft | 269 kts | 44° |
| 2026-04-25 04:55 | -33.98049 | 151.07099 | 5999 ft | 263 kts | 15° |
| 2026-04-25 04:55 | -33.96259 | 151.07200 | 5995 ft | 258 kts | 347° |
| 2026-04-25 04:55 | -33.94678 | 151.06250 | 5993 ft | 256 kts | 317° |
| 2026-04-25 04:56 | -33.93695 | 151.04501 | 6005 ft | 259 kts | 289° |
| 2026-04-25 04:56 | -33.93535 | 151.02392 | 5989 ft | 252 kts | 259° |
| 2026-04-25 04:56 | -33.94244 | 151.00549 | 5985 ft | 239 kts | 228° |
| 2026-04-25 04:56 | -33.95585 | 150.99480 | 5995 ft | 232 kts | 196° |
| 2026-04-25 04:57 | -33.97160 | 150.99089 | 5993 ft | 231 kts | 201° |
| 2026-04-25 04:57 | -33.98443 | 150.97985 | 6003 ft | 228 kts | 235° |
| 2026-04-25 04:57 | -33.99005 | 150.96233 | 5989 ft | 225 kts | 269° |
| 2026-04-25 04:57 | -33.98681 | 150.94445 | 5998 ft | 223 kts | 301° |
| 2026-04-25 04:58 | -33.97579 | 150.93160 | 5987 ft | 224 kts | 335° |
| 2026-04-25 04:58 | -33.96050 | 150.92816 | 5993 ft | 229 kts | 6° |
| 2026-04-25 04:58 | -33.94480 | 150.93155 | 5983 ft | 229 kts | 12° |
| 2026-04-25 04:58 | -33.92928 | 150.93574 | 5984 ft | 230 kts | 12° |
| 2026-04-25 04:59 | -33.91356 | 150.94011 | 6000 ft | 234 kts | 12° |
| 2026-04-25 04:59 | -33.89749 | 150.94459 | 6004 ft | 240 kts | 13° |
| 2026-04-25 04:59 | -33.88144 | 150.94909 | 5980 ft | 233 kts | 12° |
| 2026-04-25 04:59 | -33.86603 | 150.95342 | 5845 ft | 226 kts | 12° |
| 2026-04-25 05:00 | -33.85084 | 150.95769 | 5552 ft | 223 kts | 13° |
| 2026-04-25 05:00 | -33.83570 | 150.96193 | 5222 ft | 223 kts | 13° |
| 2026-04-25 05:00 | -33.82067 | 150.96600 | 4904 ft | 221 kts | 13° |
| 2026-04-25 05:00 | -33.80555 | 150.96998 | 4544 ft | 221 kts | 13° |
| 2026-04-25 05:01 | -33.79065 | 150.97387 | 4232 ft | 220 kts | 13° |
| 2026-04-25 05:01 | -33.77575 | 150.97774 | 3966 ft | 215 kts | 12° |
| 2026-04-25 05:01 | -33.76131 | 150.98153 | 3846 ft | 210 kts | 14° |
| 2026-04-25 05:01 | -33.74869 | 150.98920 | 3793 ft | 208 kts | 46° |
| 2026-04-25 05:02 | -33.74194 | 151.00460 | 3758 ft | 216 kts | 78° |
| 2026-04-25 05:02 | -33.73984 | 151.02280 | 3659 ft | 222 kts | 83° |
| 2026-04-25 05:02 | -33.73804 | 151.04130 | 3515 ft | 223 kts | 82° |
| 2026-04-25 05:02 | -33.73641 | 151.05991 | 3372 ft | 223 kts | 83° |
| 2026-04-25 05:03 | -33.73484 | 151.07846 | 3249 ft | 222 kts | 82° |
| 2026-04-25 05:03 | -33.73452 | 151.09692 | 3105 ft | 222 kts | 101° |
| 2026-04-25 05:03 | -33.74156 | 151.11331 | 3029 ft | 222 kts | 129° |
| 2026-04-25 05:03 | -33.75169 | 151.12690 | 2986 ft | 211 kts | 132° |
| 2026-04-25 05:04 | -33.76123 | 151.13898 | 2973 ft | 193 kts | 136° |
| 2026-04-25 05:04 | -33.77288 | 151.14476 | 2918 ft | 185 kts | 182° |
| 2026-04-25 05:04 | -33.78633 | 151.14272 | 2562 ft | 198 kts | 184° |
| 2026-04-25 05:04 | -33.80005 | 151.14273 | 2327 ft | 195 kts | 175° |
| 2026-04-25 05:05 | -33.81324 | 151.14434 | 2159 ft | 185 kts | 171° |
| 2026-04-25 05:05 | -33.82547 | 151.14657 | 2008 ft | 169 kts | 168° |
| 2026-04-25 05:05 | -33.83693 | 151.14906 | 2012 ft | 166 kts | 167° |
| 2026-04-25 05:05 | -33.84846 | 151.15147 | 1964 ft | 172 kts | 169° |
| 2026-04-25 05:06 | -33.86099 | 151.15390 | 1546 ft | 186 kts | 167° |
| 2026-04-25 05:06 | -33.87362 | 151.15678 | 1185 ft | 180 kts | 165° |
| 2026-04-25 05:06 | -33.88534 | 151.15994 | 919 ft | 169 kts | 163° |
| 2026-04-25 05:06 | -33.89646 | 151.16325 | 692 ft | 158 kts | 164° |
| 2026-04-25 05:07 | -33.90727 | 151.16581 | 478 ft | 158 kts | 165° |
| 2026-04-25 05:07 | -33.91794 | 151.16870 | 292 ft | 161 kts | 163° |
| 2026-04-25 05:07 | -33.92882 | 151.17149 | 84 ft | 161 kts | 166° |
| 2026-04-25 05:07 | -33.93927 | 151.17423 | 17 ft | 141 kts | 169° |
| 2026-04-25 05:08 | -33.94368 | 151.17585 | 23 ft | 26 kts | 149° |
| 2026-04-25 05:08 | -33.94433 | 151.17635 | 25 ft | 0 kts | 143° |
| 2026-04-25 05:08 | -33.94434 | 151.17636 | 25 ft | 0 kts | 143° |
| 2026-04-25 05:09 | -33.94436 | 151.17638 | 24 ft | 0 kts | 143° |
| 2026-04-25 05:09 | -33.94464 | 151.17663 | 27 ft | 12 kts | 144° |
| 2026-04-25 05:10 | -33.94513 | 151.17741 | 24 ft | 7 kts | 94° |
| 2026-04-25 05:10 | -33.94506 | 151.17821 | 21 ft | 15 kts | 77° |
| 2026-04-25 05:10 | -33.94485 | 151.17859 | 24 ft | 1 kts | 298° |
| 2026-04-25 05:10 | -33.94463 | 151.17785 | 22 ft | 18 kts | 333° |
| 2026-04-25 05:11 | -33.94343 | 151.17737 | 21 ft | 18 kts | 347° |
| 2026-04-25 05:11 | -33.94220 | 151.17704 | 20 ft | 17 kts | 348° |
| 2026-04-25 05:11 | -33.94114 | 151.17664 | 22 ft | 15 kts | 346° |
| 2026-04-25 05:12 | -33.93982 | 151.17631 | 22 ft | 0 kts | 351° |
| 2026-04-25 05:12 | -33.93972 | 151.17629 | 19 ft | 7 kts | 350° |
| 2026-04-25 05:12 | -33.93876 | 151.17604 | 18 ft | 18 kts | 347° |
| 2026-04-25 05:12 | -33.93753 | 151.17572 | 17 ft | 18 kts | 348° |
| 2026-04-25 05:13 | -33.93646 | 151.17596 | 23 ft | 12 kts | 28° |
| 2026-04-25 05:13 | -33.93602 | 151.17612 | 26 ft | 4 kts | 356° |
| 2026-04-25 05:13 | -33.93560 | 151.17603 | 26 ft | 9 kts | 349° |
| 2026-04-25 05:13 | -33.93506 | 151.17614 | 29 ft | 5 kts | 67° |
| 2026-04-25 05:14 | -33.93507 | 151.17634 | 29 ft | 3 kts | 97° |
| 2026-04-25 05:14 | -33.93510 | 151.17656 | 29 ft | 2 kts | 98° |
| 2026-04-25 05:14 | -33.93511 | 151.17670 | 29 ft | 2 kts | 98° |
| 2026-04-25 05:15 | -33.93512 | 151.17672 | 29 ft | 0 kts | 98° |